Weather at Bon Bon Airport

Public forecast

Using degrees Celsius for public forecast. Weather courtesy of forecast.io.

Closest aviation weather report (METAR) to Bon Bon Airport

Closest report is Olympic Dam Airport, 72.5 nm (134.2 km) E. Retrieved 2021/06/15 02:30 UTC (25 minutes ago):

YOLD 150230Z AUTO 31009KT 9999 // SCT011 BKN017 17/12 Q1011

Closest aviation forecast (TAF) to Bon Bon Airport

Closest forecast is Woomera Airfield, 82.0 nm (151.8 km) ESE. Retrieved 2021-06-15 00:00 UTC (3 hours ago):

TAF YPWR 142333Z 1500/1518 33009KT 9999 FEW005 BKN050 FM150100 30015KT 9999 SCT050 FM150500 30018KT 9999 -SHRA BKN050 FM150700 27018G28KT 9999 -SHRA BKN050 FM150900 29012KT CAVOK INTER 1506/1508 30025G35KT 4000 SHRA BKN020